Shekhupura, Pakistan
Current Conditions -  °F | °C
As of 10:25 PM on Sunday 23 Nov 2014 (Local Time) from OPLA Reporting Station
Smoke Smoke  
Wind Chill: 61°   Ceiling: Unl
Heat Index: 61°   Visibility: 2.5mi
Dew Point: 50°   Wind: 0mph
Humidity: 68%   Direction: NA
Pressure: 30"   Gusts: NA
Location:  31.72°N, 73.98°E
Report Text: OPLA 231725Z 00000KT 4000 FU NSC 16/10 Q1016 A29.98
Loading
Personal Weather Stations






























Interactive Weather Map New forecast layout! Learn more

10-Day Weather Forecast

Advertisements
Track Severe Weather on mobile